This is the latest recevied weather packets stored in our database for station/object OH2TI. If no packets are shown the sender has not sent any weather packets the latest 10 day(s).
| Time | Temp. | Humidity | Pressure | Rain* | Wind** | Luminosity | Snow |
|---|---|---|---|---|---|---|---|
| 1777879872 | 11.11° C | 48% | 1000.7 hPa | - | - | - | - |
| 1777879372 | 11.11° C | 49% | 1000.8 hPa | - | - | - | - |
| 1777878812 | 11.11° C | 51% | 1000.6 hPa | - | - | - | - |
| 1777878392 | 11.11° C | 47% | 1000.8 hPa | - | - | - | - |
| 1777877721 | 11.67° C | 47% | 1000.8 hPa | - | - | - | - |
| 1777877369 | 11.67° C | 47% | 1000.8 hPa | - | - | - | - |
| 1777876824 | 12.22° C | 46% | 1001 hPa | - | - | - | - |
| 1777876099 | 11.67° C | 49% | 1001.1 hPa | - | - | - | - |
| 1777875419 | 11.67° C | 49% | 1001.3 hPa | - | - | - | - |
| 1777874959 | 11.67° C | 47% | 1001.4 hPa | - | - | - | - |
| 1777874624 | 12.22° C | 47% | 1001.5 hPa | - | - | - | - |
| 1777873839 | 11.11° C | 49% | 1001.5 hPa | - | - | - | - |
| 1777872992 | 11.11° C | 46% | 1001.7 hPa | - | - | - | - |
| 1777872319 | 11.11° C | 47% | 1001.8 hPa | - | - | - | - |
| 1777871766 | 11.67° C | 46% | 1001.8 hPa | - | - | - | - |
| 1777871109 | 10.56° C | 48% | 1002 hPa | - | - | - | - |
| 1777870362 | 10° C | 51% | 1002 hPa | - | - | - | - |
| 1777869606 | 9.44° C | 51% | 1002 hPa | - | - | - | - |
| 1777868999 | 8.89° C | 53% | 1002.1 hPa | - | - | - | - |
| 1777868682 | 8.89° C | 54% | 1002 hPa | - | - | - | - |
| 1777868144 | 8.89° C | 55% | 1002.2 hPa | - | - | - | - |
| 1777867699 | 8.33° C | 56% | 1002.2 hPa | - | - | - | - |
| 1777867052 | 8.33° C | 56% | 1002.3 hPa | - | - | - | - |
| 1777866422 | 8.33° C | 56% | 1002.3 hPa | - | - | - | - |
| 1777865976 | 8.33° C | 56% | 1002.3 hPa | - | - | - | - |
* Rain since midnight (hover to see other rain measurements)
** Current wind speed in m/s (hover to see current wind gust speed)